Aeroporto :
LOGIN :

Iscrizione | Disclaimer

   EN    FR    IT 

 










Sommario :    VFR   VFR Marginale   IFR   IFR Intensivo   IFR Molto Intensivo
Visibilità : 
Base nubi : 
>= 8 km
>= 3000ft
5 / 8 km
1000 / 3000 ft
1500m / 5 km
500 / 1000 ft
800 / 1500m
200 / 500 ft
< 800m
< 200 ft
Simboli :   Temporali  Nebbia  Neve Forte  Precipitazioni Forti  Vento > 20 kt
SIGMETs :   Varie  Temporali  Ghiacco  Turbolenza  Onda orograficha  Ceneri Vulcaniche






- Altitudine del aeroporto : 1115 ft
- Codice IATA : GRZ


LOWG - Graz

ULTIMO METAR :
  • 070220Z AUTO VRB02KT 0600 R17/0900U R35/0600N FZFG OVC001 M03/M03 Q1017

METARs OBSOLETI :
  • 070150Z AUTO VRB02KT 0650 R17/1000U R35/0750N FZFG VV001 M02/M03 Q1017
  • 070120Z AUTO VRB02KT 0650 R17/1000D R35/0700N FZFG BKN001 M02/M02 Q1017
  • 070050Z AUTO VRB02KT 2000 1000S R17/P1500D R35/1400D BR FEW001 BKN002 M02/M02 Q1017
  • 070020Z AUTO 27003KT 250V320 3700 1300N R17/P1500D R35/P1500U BR BKN002 M02/M03 Q1017
  • 062350Z AUTO VRB02KT 2100 1000S R17/P1500D R35/1200D BR SCT001 BKN002 M02/M02 Q1017

TAF TAF LOWG
Valido dal 07 a 00 ore il 08 a 00 ore UTC


062315Z 0700/0724 VRB02KT 4000 BR BKN004 TX02/0714Z TNM05/0705Z
TEMPO 0700/0708 0300 FZFG VV001
BECMG 0708/0711 9999 NSW FEW020
TEMPO 0719/0724 1200 FZBCFG
PROB40
TEMPO 0721/0724 0500 FZBCFG BKN002



MetMap, La meteo Aeronautica in un colpo d'occhio ! - Copyright ORBIFLY Dicembre 2007 - Disclaimer

ORBIFLY MET'MAP TEAM :

Programmazione e sviluppo : Alexandra Zaïnal
Concezione : Baudouin d'Aumeries
Aiuto per la programmazione : Marc-Olivier Méhu
Supporto tecnico e logistico : Manuel Goepfert
Aiuto per la traduzione : Arnaldo La Scala

Contatto : metmap@orbifly.com




FONTI E CREDITI :

   NOAA